Time;durP1;ratioP1;P1;durP2;ratioP2;P2;SDS_P1;SDS_P2;PMS_P1;PMS_P2;Temp;Humidity;BMP_temperature;BMP_pressure;BME280_temperature;BME280_humidity;BME280_pressure;Samples;Min_cycle;Max_cycle;Signal;HPM_P1;HPM_P2
2024/01/14 00:02:24;;;;;;;15.23;2.58;;;5.30;99.90;;;;;;4915159;29;20048;-83
2024/01/14 00:04:50;;;;;;;28.55;4.50;;;5.30;99.90;;;;;;4898761;29;20052;-83
2024/01/14 00:07:15;;;;;;;25.67;3.35;;;5.30;99.90;;;;;;4916507;29;20531;-84
2024/01/14 00:09:41;;;;;;;16.45;3.13;;;5.30;99.90;;;;;;4915981;29;20381;-72
2024/01/14 00:12:07;;;;;;;14.40;2.20;;;5.30;99.90;;;;;;4882614;29;20111;-72
2024/01/14 00:14:32;;;;;;;18.92;3.00;;;5.30;99.90;;;;;;4898377;29;20082;-76
2024/01/14 00:16:58;;;;;;;26.42;4.30;;;5.30;99.90;;;;;;4897985;29;20420;-73
2024/01/14 00:19:24;;;;;;;24.58;3.33;;;5.30;99.90;;;;;;4898866;29;20063;-73
2024/01/14 00:21:49;;;;;;;19.20;5.35;;;5.30;99.90;;;;;;4916001;29;20382;-75
2024/01/14 00:24:16;;;;;;;10.95;2.25;;;5.30;99.90;;;;;;4901450;29;20062;-72
2024/01/14 00:26:41;;;;;;;23.75;3.40;;;5.30;99.90;;;;;;4909143;29;20063;-72
2024/01/14 00:29:07;;;;;;;12.95;2.58;;;5.30;99.90;;;;;;4927670;29;20036;-72
2024/01/14 00:31:32;;;;;;;14.93;2.90;;;5.30;99.90;;;;;;4884586;29;20064;-75
2024/01/14 00:33:58;;;;;;;29.60;3.85;;;5.30;99.90;;;;;;4900494;29;20504;-73
2024/01/14 00:36:24;;;;;;;17.38;2.72;;;5.30;99.90;;;;;;4917509;29;20359;-73
2024/01/14 00:38:49;;;;;;;22.75;2.60;;;5.30;99.90;;;;;;4924022;29;20107;-73
2024/01/14 00:41:15;;;;;;;13.30;3.33;;;5.20;99.90;;;;;;4935059;29;20064;-74
2024/01/14 00:43:41;;;;;;;19.17;3.67;;;5.10;99.90;;;;;;4930474;29;20060;-72
2024/01/14 00:46:07;;;;;;;21.15;2.58;;;5.10;99.90;;;;;;4916121;29;20056;-74
2024/01/14 00:48:32;;;;;;;16.60;2.97;;;5.10;99.90;;;;;;4914796;29;20432;-76
2024/01/14 00:50:58;;;;;;;21.10;4.40;;;5.10;99.90;;;;;;4915051;29;20052;-72
2024/01/14 00:53:24;;;;;;;13.20;2.78;;;5.10;99.90;;;;;;4914756;29;20059;-78
2024/01/14 00:55:50;;;;;;;20.90;2.72;;;5.10;99.90;;;;;;4914784;29;20052;-72
2024/01/14 00:58:16;;;;;;;16.65;3.13;;;5.20;99.90;;;;;;4914766;29;20066;-73
2024/01/14 01:00:42;;;;;;;29.20;4.28;;;5.10;99.90;;;;;;4898108;29;20052;-73
2024/01/14 01:03:08;;;;;;;22.42;3.10;;;5.20;99.90;;;;;;4897762;29;20513;-73
2024/01/14 01:05:34;;;;;;;16.63;2.90;;;5.20;99.90;;;;;;4914209;29;20064;-79
2024/01/14 01:08:00;;;;;;;15.85;2.92;;;5.20;99.90;;;;;;4914841;29;20056;-73
2024/01/14 01:10:26;;;;;;;23.95;3.65;;;5.20;99.90;;;;;;4898089;29;20052;-73
2024/01/14 01:12:52;;;;;;;19.08;3.17;;;5.20;99.90;;;;;;4914825;29;20052;-74
2024/01/14 01:15:17;;;;;;;14.02;2.60;;;5.20;99.90;;;;;;4897745;29;20056;-77
2024/01/14 01:17:43;;;;;;;19.67;3.33;;;5.10;99.90;;;;;;4897648;29;20063;-75
2024/01/14 01:20:09;;;;;;;24.25;2.92;;;5.10;99.90;;;;;;4914559;29;20044;-73
2024/01/14 01:22:35;;;;;;;14.32;3.30;;;5.10;99.90;;;;;;4914521;29;20400;-75
2024/01/14 01:25:01;;;;;;;21.13;2.60;;;5.00;99.90;;;;;;4914584;29;20048;-73
2024/01/14 01:27:29;;;;;;;11.40;2.65;;;5.20;99.90;;;;;;4914478;29;20052;-74
2024/01/14 01:29:55;;;;;;;18.30;3.95;;;5.20;99.90;;;;;;4914617;29;20454;-76
2024/01/14 01:32:21;;;;;;;19.88;4.40;;;5.20;99.90;;;;;;4914565;29;20108;-74
2024/01/14 01:34:46;;;;;;;25.50;4.55;;;5.10;99.90;;;;;;4900311;29;20056;-77
2024/01/14 01:37:13;;;;;;;35.92;4.97;;;5.10;99.90;;;;;;4917795;29;20066;-73
2024/01/14 01:39:39;;;;;;;27.45;5.25;;;5.10;99.90;;;;;;4918051;29;20048;-82
2024/01/14 01:42:05;;;;;;;28.27;4.20;;;5.10;99.90;;;;;;4917743;29;20116;-80
2024/01/14 01:44:30;;;;;;;28.08;4.60;;;5.10;99.90;;;;;;4918060;29;20047;-72
2024/01/14 01:46:57;;;;;;;20.08;3.90;;;5.00;99.90;;;;;;4917808;29;20091;-79
2024/01/14 01:49:23;;;;;;;12.32;3.30;;;5.00;99.90;;;;;;4917740;29;20725;-75
2024/01/14 01:51:50;;;;;;;22.52;4.03;;;4.90;99.90;;;;;;4900586;29;20056;-73
2024/01/14 01:54:18;;;;;;;15.20;3.08;;;4.80;99.90;;;;;;4917287;29;20059;-73
2024/01/14 01:56:44;;;;;;;13.60;2.78;;;4.70;99.90;;;;;;4917479;29;20382;-73
2024/01/14 01:59:12;;;;;;;23.20;3.75;;;4.70;99.90;;;;;;4917474;29;20059;-76
2024/01/14 02:01:37;;;;;;;24.52;4.35;;;4.70;99.90;;;;;;4917964;29;20219;-74
2024/01/14 02:04:06;;;;;;;19.75;3.33;;;4.80;99.90;;;;;;4917296;29;20135;-74
2024/01/14 02:06:32;;;;;;;33.78;6.07;;;4.90;99.90;;;;;;4917428;29;20093;-76
2024/01/14 02:08:58;;;;;;;31.60;6.40;;;4.90;99.90;;;;;;4917217;29;20465;-75
2024/01/14 02:11:24;;;;;;;26.42;4.50;;;4.90;99.90;;;;;;4899970;29;20138;-74
2024/01/14 02:13:50;;;;;;;23.55;4.65;;;4.90;99.90;;;;;;4917195;29;20169;-71
2024/01/14 02:16:15;;;;;;;14.45;2.17;;;4.80;99.90;;;;;;4916871;29;20416;-72
2024/01/14 02:18:41;;;;;;;16.05;3.40;;;4.70;99.90;;;;;;4900154;29;20134;-74
2024/01/14 02:21:10;;;;;;;19.10;4.38;;;4.60;99.90;;;;;;4899683;29;20052;-71
2024/01/14 02:23:40;;;;;;;29.23;7.53;;;4.50;99.90;;;;;;4900075;29;20055;-73
2024/01/14 02:26:06;;;;;;;26.80;4.20;;;4.50;99.90;;;;;;4900141;29;20504;-72
2024/01/14 02:28:31;;;;;;;20.20;4.25;;;4.50;99.90;;;;;;4916905;29;20054;-72
2024/01/14 02:30:58;;;;;;;19.40;3.70;;;4.40;99.90;;;;;;4916609;29;20066;-72
2024/01/14 02:33:26;;;;;;;22.40;4.28;;;4.50;99.90;;;;;;4916849;29;20373;-82
2024/01/14 02:35:52;;;;;;;27.92;4.53;;;4.40;99.90;;;;;;4916853;29;20048;-79
2024/01/14 02:38:18;;;;;;;34.60;6.43;;;4.50;99.90;;;;;;4899510;29;20511;-75
2024/01/14 02:40:44;;;;;;;29.75;3.97;;;4.50;99.90;;;;;;4899632;29;20457;-76
2024/01/14 02:43:10;;;;;;;22.25;4.40;;;4.50;99.90;;;;;;4899556;29;20056;-84
2024/01/14 02:45:36;;;;;;;24.60;3.97;;;4.50;99.90;;;;;;4915547;29;20113;-72
2024/01/14 02:48:02;;;;;;;23.52;5.25;;;4.60;99.90;;;;;;4916411;29;20047;-78
2024/01/14 02:50:27;;;;;;;37.60;7.18;;;4.60;99.90;;;;;;4899649;29;20605;-72
2024/01/14 02:52:53;;;;;;;30.52;5.65;;;4.60;99.90;;;;;;4916456;29;20535;-73
2024/01/14 02:55:18;;;;;;;22.55;5.65;;;4.60;99.90;;;;;;4916179;29;20063;-72
2024/01/14 02:57:45;;;;;;;16.98;3.20;;;4.60;99.90;;;;;;4916418;29;20523;-82
2024/01/14 03:00:12;;;;;;;20.65;3.03;;;4.70;99.90;;;;;;4915899;29;20481;-74
2024/01/14 03:02:37;;;;;;;16.30;2.60;;;4.70;99.90;;;;;;4916027;29;20099;-73
2024/01/14 03:05:05;;;;;;;21.65;3.00;;;4.70;99.90;;;;;;4915858;29;20052;-75
2024/01/14 03:07:30;;;;;;;14.60;2.78;;;4.70;99.90;;;;;;4915880;29;20082;-77
2024/01/14 03:09:56;;;;;;;15.30;2.33;;;4.70;99.90;;;;;;4916208;29;20075;-76
2024/01/14 03:12:21;;;;;;;15.55;2.40;;;4.70;99.90;;;;;;4915991;29;20096;-73
2024/01/14 03:14:47;;;;;;;22.73;2.85;;;4.70;99.90;;;;;;4915837;29;20072;-80
2024/01/14 03:17:13;;;;;;;17.13;2.38;;;4.60;99.90;;;;;;4916008;29;20055;-74
2024/01/14 03:19:38;;;;;;;19.58;3.13;;;4.60;99.90;;;;;;4916150;29;20074;-72
2024/01/14 03:22:04;;;;;;;19.42;4.30;;;4.60;99.90;;;;;;4898797;29;20056;-78
2024/01/14 03:24:30;;;;;;;40.67;5.32;;;4.50;99.90;;;;;;4916186;29;20400;-84
2024/01/14 03:26:55;;;;;;;11.60;2.22;;;4.50;99.90;;;;;;4915929;29;20409;-75
2024/01/14 03:29:21;;;;;;;15.48;2.47;;;4.40;99.90;;;;;;4915990;29;20405;-74
2024/01/14 03:31:47;;;;;;;29.52;4.40;;;4.40;99.90;;;;;;4898895;29;20155;-73
2024/01/14 03:34:12;;;;;;;25.50;2.83;;;4.30;99.90;;;;;;4898601;29;20060;-83
2024/01/14 03:36:38;;;;;;;17.80;2.50;;;4.30;99.90;;;;;;4899204;29;20135;-82
2024/01/14 03:39:04;;;;;;;20.38;2.72;;;4.20;99.90;;;;;;4915990;29;20048;-80
2024/01/14 03:41:32;;;;;;;22.48;3.03;;;4.10;99.90;;;;;;4915674;29;20397;-79
2024/01/14 03:43:58;;;;;;;15.20;2.50;;;4.10;99.90;;;;;;4915467;29;20599;-73
2024/01/14 03:46:24;;;;;;;13.18;3.63;;;4.10;99.90;;;;;;4898832;29;20099;-73
2024/01/14 03:48:49;;;;;;;16.73;3.50;;;4.10;99.90;;;;;;4915469;29;20131;-73
2024/01/14 03:51:15;;;;;;;15.52;2.92;;;4.20;99.90;;;;;;4898712;29;20288;-77
2024/01/14 03:53:40;;;;;;;21.13;3.75;;;4.30;99.90;;;;;;4915595;29;20131;-73
2024/01/14 03:56:06;;;;;;;29.33;4.35;;;4.30;99.90;;;;;;4915094;29;20051;-80
2024/01/14 03:58:32;;;;;;;25.15;4.75;;;4.40;99.90;;;;;;4915357;29;20055;-76
2024/01/14 04:00:58;;;;;;;20.42;5.32;;;4.40;99.90;;;;;;4915352;29;20060;-76
2024/01/14 04:03:23;;;;;;;24.15;3.60;;;4.40;99.90;;;;;;4915225;29;20048;-74
2024/01/14 04:05:49;;;;;;;14.15;2.83;;;4.40;99.90;;;;;;4914707;29;20523;-72
2024/01/14 04:08:15;;;;;;;15.00;3.53;;;4.40;99.90;;;;;;4897985;29;20487;-74
2024/01/14 04:10:41;;;;;;;15.85;2.35;;;4.40;99.90;;;;;;4915134;29;20071;-80
2024/01/14 04:13:06;;;;;;;23.90;3.22;;;4.40;99.90;;;;;;4915393;29;20143;-83
2024/01/14 04:15:32;;;;;;;22.48;3.70;;;4.40;99.90;;;;;;4914759;29;20131;-79
2024/01/14 04:17:58;;;;;;;19.80;2.97;;;4.40;99.90;;;;;;4898059;29;20092;-79
2024/01/14 04:20:24;;;;;;;19.40;3.53;;;4.40;99.90;;;;;;4898354;29;20074;-73
2024/01/14 04:22:50;;;;;;;25.08;4.80;;;4.40;99.90;;;;;;4915124;29;20052;-79
2024/01/14 04:25:15;;;;;;;34.35;5.03;;;4.50;99.90;;;;;;4915009;29;20452;-83
2024/01/14 04:27:41;;;;;;;15.48;1.70;;;4.40;99.90;;;;;;4915239;29;20051;-82
2024/01/14 04:30:07;;;;;;;16.45;2.65;;;4.40;99.90;;;;;;4915279;29;20044;-73
2024/01/14 04:32:34;;;;;;;16.77;2.28;;;4.30;99.90;;;;;;4897732;29;20536;-73
2024/01/14 04:34:59;;;;;;;12.48;2.95;;;4.20;99.90;;;;;;4915005;29;20052;-72
2024/01/14 04:37:25;;;;;;;20.98;4.28;;;4.20;99.90;;;;;;4914859;29;20386;-76
2024/01/14 04:39:52;;;;;;;16.20;4.10;;;4.20;99.90;;;;;;4915059;29;20049;-73
2024/01/14 04:42:17;;;;;;;15.30;2.97;;;4.10;99.90;;;;;;4915377;29;20063;-76
2024/01/14 04:44:43;;;;;;;17.48;3.50;;;4.00;99.90;;;;;;4915093;29;20052;-79
2024/01/14 04:47:09;;;;;;;24.90;2.92;;;4.10;99.90;;;;;;4914882;29;20408;-73
2024/01/14 04:49:34;;;;;;;19.63;4.18;;;4.10;99.90;;;;;;4898190;29;20059;-74
2024/01/14 04:52:00;;;;;;;16.15;2.90;;;4.10;99.90;;;;;;4914852;29;20040;-76
2024/01/14 04:54:26;;;;;;;20.83;3.42;;;4.10;99.90;;;;;;4914691;29;20060;-82
2024/01/14 04:56:52;;;;;;;26.83;3.38;;;4.20;99.90;;;;;;4914977;29;20052;-77
2024/01/14 04:59:18;;;;;;;21.55;3.25;;;4.20;99.90;;;;;;4897716;29;20088;-76
2024/01/14 05:01:44;;;;;;;30.05;3.70;;;4.20;99.90;;;;;;4897769;29;20524;-81
2024/01/14 05:04:10;;;;;;;18.25;3.38;;;4.10;99.90;;;;;;4914590;29;20529;-79
2024/01/14 05:06:35;;;;;;;21.77;3.05;;;4.10;99.90;;;;;;4914694;29;20489;-76
2024/01/14 05:09:01;;;;;;;14.40;3.60;;;4.00;99.90;;;;;;4900327;29;20071;-78
2024/01/14 05:11:27;;;;;;;27.75;5.13;;;4.00;99.90;;;;;;4919080;29;20071;-75
2024/01/14 05:13:52;;;;;;;19.83;3.28;;;3.90;99.90;;;;;;4918454;29;20154;-75
2024/01/14 05:16:18;;;;;;;23.73;4.10;;;3.80;99.90;;;;;;4885408;29;20456;-77
2024/01/14 05:18:44;;;;;;;26.13;4.47;;;3.80;99.90;;;;;;4885990;29;20060;-73
2024/01/14 05:21:19;;;;;;;21.65;4.80;;;3.80;99.90;;;;;;4885964;29;20059;-74
2024/01/14 05:23:45;;;;;;;18.38;3.42;;;3.70;99.90;;;;;;4918290;29;20055;-82
2024/01/14 05:26:11;;;;;;;24.83;3.53;;;3.60;99.90;;;;;;4918523;29;20048;-77
2024/01/14 05:28:36;;;;;;;25.98;4.20;;;3.50;99.90;;;;;;4918212;29;20050;-75
2024/01/14 05:31:03;;;;;;;20.70;3.38;;;3.50;99.90;;;;;;4917935;29;20480;-78
2024/01/14 05:33:29;;;;;;;17.73;3.25;;;3.50;99.90;;;;;;4917994;29;20118;-72
2024/01/14 05:35:54;;;;;;;26.00;4.55;;;3.60;99.90;;;;;;4917662;29;20147;-73
2024/01/14 05:38:20;;;;;;;27.48;6.05;;;3.60;99.90;;;;;;4900762;29;20075;-80
2024/01/14 05:40:46;;;;;;;24.35;3.55;;;3.70;99.90;;;;;;4900923;29;20079;-74
2024/01/14 05:43:11;;;;;;;14.63;2.42;;;3.70;99.90;;;;;;4917290;29;20056;-74
2024/01/14 05:45:37;;;;;;;23.77;4.15;;;3.80;99.90;;;;;;4900684;29;20051;-77
2024/01/14 05:48:03;;;;;;;14.30;2.22;;;3.80;99.90;;;;;;4884967;29;20084;-77
2024/01/14 05:50:29;;;;;;;21.85;2.40;;;3.90;99.90;;;;;;4917865;29;20052;-73
2024/01/14 05:52:54;;;;;;;24.58;3.92;;;4.00;99.90;;;;;;4917557;29;20040;-76
2024/01/14 05:55:20;;;;;;;15.73;2.30;;;4.00;99.90;;;;;;4917377;29;20583;-73
2024/01/14 05:57:46;;;;;;;14.35;2.30;;;4.10;99.90;;;;;;4917393;29;20134;-79
2024/01/14 06:00:13;;;;;;;15.52;2.28;;;4.10;99.90;;;;;;4900300;29;20079;-79
2024/01/14 06:02:39;;;;;;;9.93;1.80;;;4.10;99.90;;;;;;4917438;29;20107;-73
2024/01/14 06:05:05;;;;;;;21.30;3.25;;;4.20;99.90;;;;;;4916876;29;20052;-78
2024/01/14 06:07:30;;;;;;;12.90;2.45;;;4.10;99.90;;;;;;4917237;29;20044;-74
2024/01/14 06:09:56;;;;;;;20.98;3.85;;;4.10;99.90;;;;;;4900412;29;20087;-72
2024/01/14 06:12:22;;;;;;;17.25;2.97;;;4.00;99.90;;;;;;4917144;29;20074;-81
2024/01/14 06:14:47;;;;;;;16.30;4.10;;;3.90;99.90;;;;;;4900326;29;20163;-77
2024/01/14 06:17:13;;;;;;;12.20;1.83;;;3.90;99.90;;;;;;4900141;29;20519;-74
2024/01/14 06:19:41;;;;;;;14.23;3.17;;;3.80;99.90;;;;;;4917199;29;20099;-74
2024/01/14 06:22:06;;;;;;;11.98;3.13;;;3.70;99.90;;;;;;4919432;29;20104;-75
2024/01/14 06:24:32;;;;;;;12.63;3.42;;;3.60;99.90;;;;;;4925865;29;20052;-76
2024/01/14 06:26:58;;;;;;;17.60;3.72;;;3.60;99.90;;;;;;4906897;29;20055;-80
2024/01/14 06:29:24;;;;;;;13.38;2.45;;;3.50;99.90;;;;;;4926147;29;20059;-83
2024/01/14 06:31:50;;;;;;;15.25;2.63;;;3.50;99.90;;;;;;4909120;29;20055;-76
2024/01/14 06:34:15;;;;;;;16.67;2.20;;;3.40;99.90;;;;;;4922105;29;20079;-82
2024/01/14 06:36:41;;;;;;;31.88;5.00;;;3.40;99.90;;;;;;4909510;29;20052;-80
2024/01/14 06:39:07;;;;;;;22.63;3.80;;;3.40;99.90;;;;;;4892243;29;20106;-81
2024/01/14 06:41:34;;;;;;;17.00;2.60;;;3.40;99.90;;;;;;4919413;29;20056;-83
2024/01/14 06:44:00;;;;;;;21.63;2.42;;;3.50;99.90;;;;;;4916940;29;20067;-79
2024/01/14 06:46:26;;;;;;;23.80;4.72;;;3.50;99.90;;;;;;4916638;29;20103;-85
2024/01/14 06:48:51;;;;;;;22.70;4.05;;;3.50;99.90;;;;;;4916223;29;20048;-85
2024/01/14 06:51:17;;;;;;;21.27;2.90;;;3.60;99.90;;;;;;4899514;29;20052;-82
2024/01/14 06:53:43;;;;;;;23.70;5.10;;;3.70;99.90;;;;;;4916657;29;20048;-85
2024/01/14 06:56:09;;;;;;;23.33;3.25;;;3.70;99.90;;;;;;4899531;29;20504;-83
2024/01/14 06:58:35;;;;;;;16.75;3.83;;;3.80;99.90;;;;;;4916622;29;20055;-83
2024/01/14 07:01:01;;;;;;;19.17;2.22;;;3.80;99.90;;;;;;4916306;29;20040;-81
2024/01/14 07:03:27;;;;;;;16.73;2.10;;;3.80;99.90;;;;;;4916520;29;20052;-85
2024/01/14 07:05:53;;;;;;;26.98;3.08;;;3.90;99.90;;;;;;4915771;29;20087;-84
2024/01/14 07:08:18;;;;;;;19.90;2.67;;;3.90;99.90;;;;;;4883305;29;20829;-77
2024/01/14 07:10:44;;;;;;;33.60;4.18;;;3.90;99.90;;;;;;4915977;29;20070;-83
2024/01/14 07:13:10;;;;;;;27.15;4.20;;;4.00;99.90;;;;;;4899035;29;20147;-75
2024/01/14 07:15:35;;;;;;;23.45;3.53;;;4.00;99.90;;;;;;4899124;29;20052;-81
2024/01/14 07:18:04;;;;;;;24.42;4.45;;;4.00;99.90;;;;;;4899008;29;20060;-84
2024/01/14 07:20:30;;;;;;;17.13;3.10;;;3.90;99.90;;;;;;4898786;29;20048;-81
2024/01/14 07:22:56;;;;;;;22.10;4.07;;;3.90;99.90;;;;;;4915886;29;20139;-78
2024/01/14 07:25:21;;;;;;;18.73;3.03;;;3.90;99.90;;;;;;4898872;29;20448;-74
2024/01/14 07:27:48;;;;;;;31.27;4.72;;;3.80;99.90;;;;;;4915729;29;20056;-81
2024/01/14 07:30:14;;;;;;;13.00;2.35;;;3.90;99.90;;;;;;4898479;29;20048;-80
2024/01/14 07:32:40;;;;;;;17.83;5.15;;;3.90;99.90;;;;;;4898495;29;20052;-77
2024/01/14 07:35:06;;;;;;;28.55;5.20;;;4.00;99.90;;;;;;4915666;29;20063;-82
2024/01/14 07:37:33;;;;;;;10.43;2.17;;;4.10;99.90;;;;;;4915795;29;20056;-83
2024/01/14 07:40:00;;;;;;;6.72;1.02;;;4.20;99.90;;;;;;4898496;29;20104;-81
2024/01/14 07:42:26;;;;;;;11.52;1.67;;;4.10;99.90;;;;;;4915848;29;20056;-80
2024/01/14 07:44:52;;;;;;;4.88;0.88;;;4.10;99.90;;;;;;4916311;29;20055;-73
2024/01/14 07:47:18;;;;;;;8.02;1.25;;;4.00;99.90;;;;;;4898801;29;20095;-80
2024/01/14 07:49:48;;;;;;;7.45;1.10;;;4.00;99.90;;;;;;4882666;29;20088;-82
2024/01/14 07:52:17;;;;;;;16.67;2.58;;;4.00;99.90;;;;;;4898341;29;20131;-77
2024/01/14 07:54:43;;;;;;;13.95;1.50;;;3.90;99.90;;;;;;4898386;29;20067;-78
2024/01/14 07:57:10;;;;;;;11.88;1.80;;;3.90;99.90;;;;;;4898383;29;20169;-79
2024/01/14 07:59:36;;;;;;;6.35;1.85;;;3.80;99.90;;;;;;4915503;29;20107;-80
2024/01/14 08:02:02;;;;;;;10.10;1.75;;;3.80;99.90;;;;;;4915462;29;20059;-81
2024/01/14 08:04:27;;;;;;;10.73;3.45;;;3.80;99.90;;;;;;4914743;29;20052;-82
2024/01/14 08:06:53;;;;;;;20.52;2.53;;;3.80;99.90;;;;;;4915341;29;20060;-73
2024/01/14 08:09:20;;;;;;;13.63;2.33;;;3.80;99.90;;;;;;4898554;29;20052;-79
2024/01/14 08:11:45;;;;;;;10.23;2.28;;;3.80;99.90;;;;;;4915119;29;20052;-77
2024/01/14 08:14:11;;;;;;;22.88;3.35;;;3.80;99.90;;;;;;4915288;29;20115;-79
2024/01/14 08:16:37;;;;;;;18.88;2.38;;;3.70;99.90;;;;;;4915204;29;20048;-77
2024/01/14 08:19:03;;;;;;;16.83;2.60;;;3.70;99.90;;;;;;4915227;29;20528;-84
2024/01/14 08:21:29;;;;;;;17.33;2.30;;;3.70;99.90;;;;;;4897970;29;20079;-83
2024/01/14 08:23:54;;;;;;;23.27;3.00;;;3.60;99.90;;;;;;4898021;29;20059;-82
2024/01/14 08:26:20;;;;;;;18.17;2.25;;;3.60;99.90;;;;;;4914913;29;20131;-78
2024/01/14 08:28:46;;;;;;;15.70;4.50;;;3.70;99.90;;;;;;4914932;29;20131;-82
2024/01/14 08:31:12;;;;;;;10.45;2.25;;;3.70;99.90;;;;;;4898005;29;20086;-80
2024/01/14 08:33:41;;;;;;;26.20;3.22;;;3.70;99.90;;;;;;4898065;29;20060;-77
2024/01/14 08:36:08;;;;;;;17.63;3.08;;;3.60;99.90;;;;;;4914903;29;20461;-80
2024/01/14 08:38:35;;;;;;;17.92;3.72;;;3.60;99.90;;;;;;4914903;29;20056;-78
2024/01/14 08:41:00;;;;;;;24.35;3.60;;;3.50;99.90;;;;;;4914563;29;20387;-77
2024/01/14 08:43:26;;;;;;;20.15;3.90;;;3.50;99.90;;;;;;4916343;29;20104;-78
2024/01/14 08:45:52;;;;;;;19.30;4.22;;;3.40;99.90;;;;;;4901519;29;20552;-80
2024/01/14 08:48:17;;;;;;;14.95;2.72;;;3.40;99.90;;;;;;4901713;29;20044;-84
2024/01/14 08:50:43;;;;;;;17.55;2.85;;;3.40;99.90;;;;;;4901937;29;20060;-74
2024/01/14 08:53:09;;;;;;;23.80;2.80;;;3.40;99.90;;;;;;4918416;29;20052;-74
2024/01/14 08:55:34;;;;;;;21.48;3.15;;;3.50;99.90;;;;;;4918093;29;20052;-81
2024/01/14 08:58:00;;;;;;;18.50;3.13;;;3.60;99.90;;;;;;4918715;29;20044;-72
2024/01/14 09:00:26;;;;;;;15.02;2.60;;;3.70;99.90;;;;;;4901682;29;20524;-84
2024/01/14 09:02:52;;;;;;;16.70;2.20;;;3.80;99.90;;;;;;4901628;29;20496;-77
2024/01/14 09:05:17;;;;;;;6.85;1.77;;;3.80;99.90;;;;;;4917907;29;20055;-81
2024/01/14 09:07:43;;;;;;;15.50;1.92;;;4.00;99.90;;;;;;4918132;29;20056;-77
2024/01/14 09:10:09;;;;;;;13.60;2.80;;;4.10;99.90;;;;;;4918190;29;20064;-81
2024/01/14 09:12:35;;;;;;;12.05;1.75;;;4.30;99.90;;;;;;4918083;29;20135;-78
2024/01/14 09:15:01;;;;;;;9.85;1.58;;;4.40;99.90;;;;;;4917995;29;20080;-76
2024/01/14 09:17:26;;;;;;;10.85;1.95;;;4.60;99.90;;;;;;4918240;29;20048;-77
2024/01/14 09:19:53;;;;;;;5.95;1.38;;;4.70;99.90;;;;;;4918164;29;20059;-81
2024/01/14 09:22:18;;;;;;;10.27;1.63;;;4.70;99.90;;;;;;4918269;29;20074;-77
2024/01/14 09:24:45;;;;;;;10.98;1.40;;;4.80;99.90;;;;;;4918244;29;20052;-85
2024/01/14 09:27:13;;;;;;;7.80;1.60;;;4.80;99.90;;;;;;4917540;29;20531;-85
2024/01/14 09:29:39;;;;;;;14.50;2.25;;;4.90;99.90;;;;;;4917879;29;20081;-84
2024/01/14 09:32:05;;;;;;;10.20;2.55;;;5.00;99.90;;;;;;4918057;29;20056;-81
2024/01/14 09:34:31;;;;;;;13.63;2.00;;;5.00;99.90;;;;;;4900904;29;20107;-84
2024/01/14 09:36:57;;;;;;;13.55;1.88;;;5.10;99.90;;;;;;4900477;29;20052;-84
2024/01/14 09:39:22;;;;;;;15.43;2.08;;;5.20;99.90;;;;;;4918039;29;20460;-82
2024/01/14 09:42:05;;;;;;;16.63;2.95;;;5.30;99.90;;;;;;4918068;29;20408;-81
2024/01/14 09:44:31;;;;;;;14.75;1.98;;;5.40;99.90;;;;;;4900442;29;20104;-83
2024/01/14 09:46:58;;;;;;;12.50;3.28;;;5.50;99.90;;;;;;4900477;29;20052;-81
2024/01/14 09:49:24;;;;;;;8.55;1.52;;;5.50;99.90;;;;;;4900704;29;20552;-75
2024/01/14 09:51:50;;;;;;;13.02;2.45;;;5.50;99.90;;;;;;4917970;29;20044;-75
2024/01/14 09:54:16;;;;;;;14.70;1.83;;;5.50;99.90;;;;;;4900261;29;20147;-75
2024/01/14 09:56:44;;;;;;;20.05;2.83;;;5.50;99.90;;;;;;4917375;29;20107;-76
2024/01/14 09:59:09;;;;;;;11.45;2.22;;;5.40;99.90;;;;;;4917288;29;20052;-79
2024/01/14 10:01:37;;;;;;;14.93;1.88;;;5.30;99.90;;;;;;4917640;29;20446;-83
2024/01/14 10:04:07;;;;;;;13.07;1.90;;;5.30;99.90;;;;;;4916853;29;20077;-83
2024/01/14 10:06:33;;;;;;;19.38;1.90;;;5.40;99.90;;;;;;4900284;29;20099;-74
2024/01/14 10:08:58;;;;;;;12.38;2.75;;;5.40;99.90;;;;;;4900203;29;20485;-76
2024/01/14 10:11:25;;;;;;;12.70;2.00;;;5.50;99.90;;;;;;4917275;29;20044;-84
2024/01/14 10:13:51;;;;;;;13.77;2.03;;;5.60;99.90;;;;;;4900458;29;20374;-77
2024/01/14 10:16:17;;;;;;;12.55;2.03;;;5.70;99.90;;;;;;4916797;29;20077;-85
2024/01/14 10:18:43;;;;;;;11.07;1.35;;;5.60;99.90;;;;;;4917275;29;20056;-82
2024/01/14 10:21:11;;;;;;;11.90;1.63;;;5.50;99.90;;;;;;4917364;29;20104;-84
2024/01/14 10:23:39;;;;;;;10.57;2.95;;;5.30;99.90;;;;;;4917202;29;20052;-75
2024/01/14 10:26:06;;;;;;;9.15;2.13;;;5.30;99.90;;;;;;4917371;29;20056;-82
2024/01/14 10:28:33;;;;;;;10.82;2.92;;;5.60;99.90;;;;;;4917123;29;20044;-85
2024/01/14 10:31:00;;;;;;;12.80;2.42;;;5.40;99.90;;;;;;4899610;29;20060;-85
2024/01/14 10:33:26;;;;;;;8.52;2.20;;;5.30;99.90;;;;;;4917137;29;20152;-85
2024/01/14 10:35:52;;;;;;;7.75;1.17;;;5.60;99.90;;;;;;4916780;29;20104;-83
2024/01/14 10:38:21;;;;;;;10.23;2.13;;;6.00;99.90;;;;;;4916717;29;20056;-74
2024/01/14 10:40:47;;;;;;;11.48;1.65;;;6.30;99.90;;;;;;4899735;29;20047;-81
2024/01/14 10:43:13;;;;;;;10.65;1.60;;;6.50;99.90;;;;;;4916880;29;20048;-81
2024/01/14 10:45:39;;;;;;;11.55;1.63;;;6.70;99.90;;;;;;4916497;29;20667;-79
2024/01/14 10:48:08;;;;;;;6.50;1.02;;;6.80;99.90;;;;;;4899788;29;20064;-81
2024/01/14 10:50:35;;;;;;;11.20;1.30;;;6.90;99.90;;;;;;4900136;29;20115;-79
2024/01/14 10:53:07;;;;;;;17.25;2.20;;;7.00;99.90;;;;;;4899111;29;20087;-81
2024/01/14 10:55:48;;;;;;;8.93;1.98;;;7.00;99.90;;;;;;4916898;29;20166;-81
2024/01/14 10:58:26;;;;;;;11.80;1.60;;;7.10;99.90;;;;;;4916292;29;20492;-78
2024/01/14 11:00:58;;;;;;;14.23;1.30;;;7.40;99.90;;;;;;4916672;29;20056;-75
2024/01/14 11:03:23;;;;;;;6.20;1.65;;;7.80;99.90;;;;;;4916283;29;20052;-75
2024/01/14 11:05:51;;;;;;;16.73;3.10;;;8.10;99.90;;;;;;4915094;29;20060;-82
2024/01/14 11:08:19;;;;;;;7.10;2.80;;;8.30;99.90;;;;;;4899734;29;20107;-76
2024/01/14 11:10:45;;;;;;;14.10;1.70;;;8.10;99.90;;;;;;4916278;29;20122;-84
2024/01/14 11:13:39;;;;;;;10.18;1.42;;;8.30;99.90;;;;;;4915855;29;20497;-86
2024/01/14 11:16:16;;;;;;;16.50;3.75;;;8.60;99.90;;;;;;4898969;29;20056;-82
2024/01/14 11:18:55;;;;;;;17.67;2.72;;;9.20;99.90;;;;;;4899224;29;20083;-81
2024/01/14 11:21:39;;;;;;;13.10;1.55;;;9.30;99.90;;;;;;4916128;29;20072;-85
2024/01/14 11:24:05;;;;;;;9.05;1.90;;;9.20;99.90;;;;;;4916563;29;20052;-85
2024/01/14 11:26:31;;;;;;;15.73;3.63;;;9.30;99.90;;;;;;4916903;29;20064;-84
2024/01/14 11:28:59;;;;;;;16.35;1.50;;;9.40;99.90;;;;;;4915968;29;20142;-78
2024/01/14 11:32:13;;;;;;;12.60;2.08;;;9.30;99.90;;;;;;4915971;29;20588;-75
2024/01/14 11:34:47;;;;;;;12.23;1.92;;;9.20;99.90;;;;;;4895509;29;20059;-73
2024/01/14 11:37:34;;;;;;;;;;;8.80;99.90;;;;;;4916166;29;20059;-75
2024/01/14 11:40:06;;;;;;;8.13;1.15;;;8.20;99.90;;;;;;4915969;29;20287;-73
2024/01/14 11:42:36;;;;;;;6.05;1.35;;;7.80;99.90;;;;;;4915659;29;20055;-74
2024/01/14 11:45:02;;;;;;;9.43;1.10;;;7.60;99.90;;;;;;4915577;29;20466;-74
2024/01/14 11:47:35;;;;;;;4.50;1.83;;;7.40;99.90;;;;;;4898276;29;20056;-74
2024/01/14 11:50:03;;;;;;;10.05;2.03;;;7.50;99.90;;;;;;4898393;29;20052;-73
2024/01/14 11:52:29;;;;;;;4.55;1.55;;;7.30;99.90;;;;;;4915388;29;20059;-75
2024/01/14 11:54:54;;;;;;;13.75;2.60;;;7.20;99.90;;;;;;4915691;29;20044;-73
2024/01/14 11:57:24;;;;;;;17.25;2.78;;;7.20;99.90;;;;;;4915429;29;20091;-76
2024/01/14 11:59:51;;;;;;;11.25;1.73;;;7.10;99.90;;;;;;4915665;29;20044;-75
2024/01/14 12:02:20;;;;;;;9.77;1.50;;;7.10;99.90;;;;;;4915629;29;20123;-74
2024/01/14 12:04:45;;;;;;;8.98;1.13;;;7.10;99.90;;;;;;4914921;29;20457;-82
2024/01/14 12:07:11;;;;;;;9.95;1.50;;;7.40;99.90;;;;;;4898011;29;20076;-85
2024/01/14 12:09:37;;;;;;;10.43;1.40;;;7.80;99.90;;;;;;4898519;29;20052;-79
2024/01/14 12:12:06;;;;;;;5.43;1.55;;;8.80;99.90;;;;;;4882511;29;20513;-84
2024/01/14 12:14:37;;;;;;;8.30;1.02;;;9.60;99.90;;;;;;4915108;29;20060;-84
2024/01/14 12:17:12;;;;;;;7.85;1.05;;;9.40;99.90;;;;;;4897954;29;20489;-86
2024/01/14 12:19:37;;;;;;;8.20;1.30;;;10.00;99.90;;;;;;4915178;29;20555;-81
2024/01/14 12:22:03;;;;;;;10.98;1.80;;;10.70;99.90;;;;;;4915017;29;20044;-76
2024/01/14 12:24:29;;;;;;;6.10;1.23;;;11.10;99.90;;;;;;4915039;29;20610;-77
2024/01/14 12:26:58;;;;;;;3.25;0.82;;;11.60;99.90;;;;;;4915008;29;20051;-73
2024/01/14 12:29:24;;;;;;;8.52;1.60;;;11.30;99.90;;;;;;4897694;29;20048;-79
2024/01/14 12:31:50;;;;;;;8.98;1.73;;;10.80;99.90;;;;;;4897830;29;20135;-79
2024/01/14 12:34:15;;;;;;;8.70;1.50;;;9.80;99.90;;;;;;4897520;29;20525;-74
2024/01/14 12:36:42;;;;;;;12.35;1.35;;;8.90;99.90;;;;;;4914816;29;20048;-74
2024/01/14 12:39:09;;;;;;;7.25;1.20;;;8.10;99.90;;;;;;4898096;29;20052;-77
2024/01/14 12:41:35;;;;;;;8.23;0.80;;;7.30;99.90;;;;;;4897550;29;20187;-75
2024/01/14 12:44:01;;;;;;;10.90;1.67;;;6.90;99.90;;;;;;4897576;29;20060;-76
2024/01/14 12:46:26;;;;;;;4.68;1.65;;;6.60;99.90;;;;;;4882154;29;20071;-79